sensor_id;sensor_type;location;lat;lon;timestamp;P1;durP1;ratioP1;P2;durP2;ratioP2
52494;SDS011;38405;53.212;5.660;2023-07-08T00:00:46;7.15;;;3.60;;
52494;SDS011;38405;53.212;5.660;2023-07-08T00:03:13;5.55;;;3.55;;
52494;SDS011;38405;53.212;5.660;2023-07-08T00:05:39;5.72;;;3.63;;
52494;SDS011;38405;53.212;5.660;2023-07-08T00:08:07;5.55;;;3.67;;
52494;SDS011;38405;53.212;5.660;2023-07-08T00:10:36;8.10;;;3.60;;
52494;SDS011;38405;53.212;5.660;2023-07-08T00:13:02;4.38;;;3.15;;
52494;SDS011;38405;53.212;5.660;2023-07-08T00:15:28;5.07;;;3.30;;
52494;SDS011;38405;53.212;5.660;2023-07-08T00:17:57;4.45;;;3.30;;
52494;SDS011;38405;53.212;5.660;2023-07-08T00:20:27;5.50;;;3.53;;
52494;SDS011;38405;53.212;5.660;2023-07-08T00:22:56;5.75;;;3.30;;
52494;SDS011;38405;53.212;5.660;2023-07-08T00:25:25;4.05;;;3.42;;
52494;SDS011;38405;53.212;5.660;2023-07-08T00:27:51;6.60;;;3.28;;
52494;SDS011;38405;53.212;5.660;2023-07-08T00:30:19;8.52;;;3.50;;
52494;SDS011;38405;53.212;5.660;2023-07-08T00:32:55;6.45;;;3.95;;
52494;SDS011;38405;53.212;5.660;2023-07-08T00:38:21;7.18;;;3.83;;
52494;SDS011;38405;53.212;5.660;2023-07-08T00:43:54;10.10;;;3.75;;
52494;SDS011;38405;53.212;5.660;2023-07-08T00:46:29;5.88;;;3.22;;
52494;SDS011;38405;53.212;5.660;2023-07-08T00:51:33;7.47;;;3.70;;
52494;SDS011;38405;53.212;5.660;2023-07-08T00:54:04;5.15;;;3.40;;
52494;SDS011;38405;53.212;5.660;2023-07-08T00:56:57;7.15;;;3.70;;
52494;SDS011;38405;53.212;5.660;2023-07-08T00:59:29;4.40;;;3.38;;
52494;SDS011;38405;53.212;5.660;2023-07-08T01:02:00;5.55;;;3.58;;
52494;SDS011;38405;53.212;5.660;2023-07-08T01:07:32;4.82;;;3.10;;
52494;SDS011;38405;53.212;5.660;2023-07-08T01:10:01;6.05;;;3.53;;
52494;SDS011;38405;53.212;5.660;2023-07-08T01:12:34;7.38;;;3.75;;
52494;SDS011;38405;53.212;5.660;2023-07-08T01:15:05;5.25;;;3.60;;
52494;SDS011;38405;53.212;5.660;2023-07-08T01:17:32;4.40;;;3.30;;
52494;SDS011;38405;53.212;5.660;2023-07-08T01:19:59;6.18;;;3.88;;
52494;SDS011;38405;53.212;5.660;2023-07-08T01:22:25;5.95;;;3.88;;
52494;SDS011;38405;53.212;5.660;2023-07-08T01:24:57;6.38;;;3.80;;
52494;SDS011;38405;53.212;5.660;2023-07-08T01:27:28;7.93;;;3.90;;
52494;SDS011;38405;53.212;5.660;2023-07-08T01:29:56;6.07;;;3.40;;
52494;SDS011;38405;53.212;5.660;2023-07-08T01:32:23;5.45;;;3.42;;
52494;SDS011;38405;53.212;5.660;2023-07-08T01:34:49;5.03;;;3.72;;
52494;SDS011;38405;53.212;5.660;2023-07-08T01:38:11;5.57;;;3.50;;
52494;SDS011;38405;53.212;5.660;2023-07-08T01:42:52;5.90;;;3.58;;
52494;SDS011;38405;53.212;5.660;2023-07-08T01:45:19;6.57;;;3.75;;
52494;SDS011;38405;53.212;5.660;2023-07-08T01:47:51;4.45;;;3.30;;
52494;SDS011;38405;53.212;5.660;2023-07-08T01:50:20;7.70;;;4.00;;
52494;SDS011;38405;53.212;5.660;2023-07-08T01:52:47;5.53;;;3.50;;
52494;SDS011;38405;53.212;5.660;2023-07-08T01:55:15;5.05;;;3.25;;
52494;SDS011;38405;53.212;5.660;2023-07-08T01:57:40;6.18;;;3.58;;
52494;SDS011;38405;53.212;5.660;2023-07-08T02:00:06;4.50;;;3.72;;
52494;SDS011;38405;53.212;5.660;2023-07-08T02:02:33;6.15;;;3.63;;
52494;SDS011;38405;53.212;5.660;2023-07-08T02:04:59;10.10;;;3.65;;
52494;SDS011;38405;53.212;5.660;2023-07-08T02:07:24;5.63;;;3.60;;
52494;SDS011;38405;53.212;5.660;2023-07-08T02:09:50;5.22;;;3.35;;
52494;SDS011;38405;53.212;5.660;2023-07-08T02:12:16;5.75;;;3.65;;
52494;SDS011;38405;53.212;5.660;2023-07-08T02:14:41;10.57;;;3.90;;
52494;SDS011;38405;53.212;5.660;2023-07-08T02:17:07;8.20;;;4.18;;
52494;SDS011;38405;53.212;5.660;2023-07-08T02:19:32;4.97;;;3.60;;
52494;SDS011;38405;53.212;5.660;2023-07-08T02:21:58;5.75;;;3.38;;
52494;SDS011;38405;53.212;5.660;2023-07-08T02:24:25;8.40;;;3.97;;
52494;SDS011;38405;53.212;5.660;2023-07-08T02:26:51;9.15;;;3.78;;
52494;SDS011;38405;53.212;5.660;2023-07-08T02:29:16;5.13;;;4.00;;
52494;SDS011;38405;53.212;5.660;2023-07-08T02:31:42;4.82;;;3.55;;
52494;SDS011;38405;53.212;5.660;2023-07-08T02:34:08;5.63;;;4.15;;
52494;SDS011;38405;53.212;5.660;2023-07-08T02:36:34;7.47;;;3.97;;
52494;SDS011;38405;53.212;5.660;2023-07-08T02:39:00;6.53;;;3.97;;
52494;SDS011;38405;53.212;5.660;2023-07-08T02:41:25;5.30;;;3.63;;
52494;SDS011;38405;53.212;5.660;2023-07-08T02:43:51;7.93;;;4.47;;
52494;SDS011;38405;53.212;5.660;2023-07-08T02:46:17;5.15;;;3.53;;
52494;SDS011;38405;53.212;5.660;2023-07-08T02:48:42;7.07;;;4.13;;
52494;SDS011;38405;53.212;5.660;2023-07-08T02:51:08;7.07;;;4.28;;
52494;SDS011;38405;53.212;5.660;2023-07-08T02:53:34;11.80;;;4.43;;
52494;SDS011;38405;53.212;5.660;2023-07-08T02:56:00;7.10;;;4.15;;
52494;SDS011;38405;53.212;5.660;2023-07-08T02:58:26;6.28;;;4.00;;
52494;SDS011;38405;53.212;5.660;2023-07-08T03:00:52;6.45;;;3.83;;
52494;SDS011;38405;53.212;5.660;2023-07-08T03:03:24;7.55;;;4.40;;
52494;SDS011;38405;53.212;5.660;2023-07-08T03:05:56;7.10;;;4.40;;
52494;SDS011;38405;53.212;5.660;2023-07-08T03:08:24;4.95;;;4.00;;
52494;SDS011;38405;53.212;5.660;2023-07-08T03:10:57;7.70;;;4.10;;
52494;SDS011;38405;53.212;5.660;2023-07-08T03:13:24;6.95;;;4.32;;
52494;SDS011;38405;53.212;5.660;2023-07-08T03:15:50;7.93;;;4.13;;
52494;SDS011;38405;53.212;5.660;2023-07-08T03:18:16;6.93;;;4.00;;
52494;SDS011;38405;53.212;5.660;2023-07-08T03:20:42;6.28;;;4.00;;
52494;SDS011;38405;53.212;5.660;2023-07-08T03:23:11;5.13;;;4.07;;
52494;SDS011;38405;53.212;5.660;2023-07-08T03:25:37;6.90;;;4.65;;
52494;SDS011;38405;53.212;5.660;2023-07-08T03:28:03;6.20;;;4.38;;
52494;SDS011;38405;53.212;5.660;2023-07-08T03:30:33;5.85;;;4.32;;
52494;SDS011;38405;53.212;5.660;2023-07-08T03:32:59;6.65;;;4.30;;
52494;SDS011;38405;53.212;5.660;2023-07-08T03:35:25;6.18;;;4.55;;
52494;SDS011;38405;53.212;5.660;2023-07-08T03:37:51;4.80;;;4.15;;
52494;SDS011;38405;53.212;5.660;2023-07-08T03:40:17;6.00;;;4.68;;
52494;SDS011;38405;53.212;5.660;2023-07-08T03:42:43;10.45;;;4.82;;
52494;SDS011;38405;53.212;5.660;2023-07-08T03:45:09;6.18;;;4.55;;
52494;SDS011;38405;53.212;5.660;2023-07-08T03:47:35;6.28;;;4.72;;
52494;SDS011;38405;53.212;5.660;2023-07-08T03:50:01;7.13;;;4.70;;
52494;SDS011;38405;53.212;5.660;2023-07-08T03:52:27;7.43;;;4.43;;
52494;SDS011;38405;53.212;5.660;2023-07-08T03:54:53;9.05;;;4.53;;
52494;SDS011;38405;53.212;5.660;2023-07-08T03:57:19;4.90;;;4.05;;
52494;SDS011;38405;53.212;5.660;2023-07-08T03:59:44;10.00;;;4.47;;
52494;SDS011;38405;53.212;5.660;2023-07-08T04:02:10;9.95;;;4.15;;
52494;SDS011;38405;53.212;5.660;2023-07-08T04:04:36;6.43;;;4.45;;
52494;SDS011;38405;53.212;5.660;2023-07-08T04:07:06;8.10;;;4.60;;
52494;SDS011;38405;53.212;5.660;2023-07-08T04:09:32;8.55;;;4.68;;
52494;SDS011;38405;53.212;5.660;2023-07-08T04:11:57;5.57;;;4.38;;
52494;SDS011;38405;53.212;5.660;2023-07-08T04:14:24;6.47;;;4.82;;
52494;SDS011;38405;53.212;5.660;2023-07-08T04:16:51;6.22;;;4.03;;
52494;SDS011;38405;53.212;5.660;2023-07-08T04:19:22;5.95;;;4.07;;
52494;SDS011;38405;53.212;5.660;2023-07-08T04:21:48;8.52;;;4.82;;
52494;SDS011;38405;53.212;5.660;2023-07-08T04:24:14;12.13;;;4.25;;
52494;SDS011;38405;53.212;5.660;2023-07-08T04:26:41;4.88;;;4.35;;
52494;SDS011;38405;53.212;5.660;2023-07-08T04:29:11;7.25;;;4.40;;
52494;SDS011;38405;53.212;5.660;2023-07-08T04:31:38;10.80;;;4.32;;
52494;SDS011;38405;53.212;5.660;2023-07-08T04:34:04;9.52;;;4.30;;
52494;SDS011;38405;53.212;5.660;2023-07-08T04:36:31;4.25;;;3.80;;
52494;SDS011;38405;53.212;5.660;2023-07-08T04:38:57;6.15;;;4.07;;
52494;SDS011;38405;53.212;5.660;2023-07-08T04:41:23;7.80;;;4.00;;
52494;SDS011;38405;53.212;5.660;2023-07-08T04:43:50;5.82;;;4.20;;
52494;SDS011;38405;53.212;5.660;2023-07-08T04:47:00;8.98;;;4.30;;
52494;SDS011;38405;53.212;5.660;2023-07-08T04:49:11;5.50;;;3.97;;
52494;SDS011;38405;53.212;5.660;2023-07-08T04:51:38;7.43;;;3.70;;
52494;SDS011;38405;53.212;5.660;2023-07-08T04:54:05;5.20;;;3.83;;
52494;SDS011;38405;53.212;5.660;2023-07-08T04:59:25;7.47;;;4.13;;
52494;SDS011;38405;53.212;5.660;2023-07-08T05:01:51;6.78;;;3.80;;
52494;SDS011;38405;53.212;5.660;2023-07-08T05:04:18;5.03;;;4.25;;
52494;SDS011;38405;53.212;5.660;2023-07-08T05:06:45;8.55;;;4.20;;
52494;SDS011;38405;53.212;5.660;2023-07-08T05:09:12;7.28;;;4.25;;
52494;SDS011;38405;53.212;5.660;2023-07-08T05:11:38;7.88;;;4.05;;
52494;SDS011;38405;53.212;5.660;2023-07-08T05:14:04;8.95;;;4.45;;
52494;SDS011;38405;53.212;5.660;2023-07-08T05:16:31;7.25;;;4.70;;
52494;SDS011;38405;53.212;5.660;2023-07-08T05:18:58;8.02;;;4.20;;
52494;SDS011;38405;53.212;5.660;2023-07-08T05:21:24;10.77;;;4.10;;
52494;SDS011;38405;53.212;5.660;2023-07-08T05:23:52;6.82;;;3.78;;
52494;SDS011;38405;53.212;5.660;2023-07-08T05:26:18;8.35;;;4.55;;
52494;SDS011;38405;53.212;5.660;2023-07-08T05:28:44;5.78;;;4.30;;
52494;SDS011;38405;53.212;5.660;2023-07-08T05:31:10;6.90;;;4.28;;
52494;SDS011;38405;53.212;5.660;2023-07-08T05:33:36;5.63;;;3.78;;
52494;SDS011;38405;53.212;5.660;2023-07-08T05:36:01;7.07;;;4.07;;
52494;SDS011;38405;53.212;5.660;2023-07-08T05:38:27;6.28;;;4.15;;
52494;SDS011;38405;53.212;5.660;2023-07-08T05:40:54;5.38;;;3.92;;
52494;SDS011;38405;53.212;5.660;2023-07-08T05:43:21;6.00;;;3.60;;
52494;SDS011;38405;53.212;5.660;2023-07-08T05:45:46;7.72;;;4.25;;
52494;SDS011;38405;53.212;5.660;2023-07-08T05:48:12;5.93;;;4.47;;
52494;SDS011;38405;53.212;5.660;2023-07-08T05:50:38;10.23;;;3.80;;
52494;SDS011;38405;53.212;5.660;2023-07-08T05:53:05;5.88;;;4.30;;
52494;SDS011;38405;53.212;5.660;2023-07-08T05:55:31;6.88;;;3.70;;
52494;SDS011;38405;53.212;5.660;2023-07-08T05:57:57;5.40;;;3.90;;
52494;SDS011;38405;53.212;5.660;2023-07-08T06:00:23;4.97;;;3.53;;
52494;SDS011;38405;53.212;5.660;2023-07-08T06:02:48;4.95;;;3.80;;
52494;SDS011;38405;53.212;5.660;2023-07-08T06:05:14;9.45;;;3.70;;
52494;SDS011;38405;53.212;5.660;2023-07-08T06:07:40;7.05;;;3.60;;
52494;SDS011;38405;53.212;5.660;2023-07-08T06:10:06;4.18;;;3.50;;
52494;SDS011;38405;53.212;5.660;2023-07-08T06:12:32;4.50;;;3.45;;
52494;SDS011;38405;53.212;5.660;2023-07-08T06:14:58;4.35;;;3.65;;
52494;SDS011;38405;53.212;5.660;2023-07-08T06:17:23;6.93;;;3.30;;
52494;SDS011;38405;53.212;5.660;2023-07-08T06:19:49;7.53;;;3.50;;
52494;SDS011;38405;53.212;5.660;2023-07-08T06:22:15;4.85;;;3.03;;
52494;SDS011;38405;53.212;5.660;2023-07-08T06:24:41;5.47;;;3.67;;
52494;SDS011;38405;53.212;5.660;2023-07-08T06:27:07;5.68;;;3.50;;
52494;SDS011;38405;53.212;5.660;2023-07-08T06:29:33;6.53;;;3.10;;
52494;SDS011;38405;53.212;5.660;2023-07-08T06:32:00;4.05;;;3.20;;
52494;SDS011;38405;53.212;5.660;2023-07-08T06:34:26;5.40;;;3.47;;
52494;SDS011;38405;53.212;5.660;2023-07-08T06:36:51;7.43;;;3.35;;
52494;SDS011;38405;53.212;5.660;2023-07-08T06:39:17;5.45;;;3.13;;
52494;SDS011;38405;53.212;5.660;2023-07-08T06:41:44;5.07;;;2.83;;
52494;SDS011;38405;53.212;5.660;2023-07-08T06:44:09;3.40;;;2.92;;
52494;SDS011;38405;53.212;5.660;2023-07-08T06:46:35;4.75;;;2.85;;
52494;SDS011;38405;53.212;5.660;2023-07-08T06:49:01;4.28;;;2.75;;
52494;SDS011;38405;53.212;5.660;2023-07-08T06:51:27;3.40;;;2.65;;
52494;SDS011;38405;53.212;5.660;2023-07-08T06:53:53;3.20;;;2.65;;
52494;SDS011;38405;53.212;5.660;2023-07-08T06:56:18;4.95;;;2.78;;
52494;SDS011;38405;53.212;5.660;2023-07-08T06:58:44;3.50;;;2.80;;
52494;SDS011;38405;53.212;5.660;2023-07-08T07:01:10;5.28;;;2.80;;
52494;SDS011;38405;53.212;5.660;2023-07-08T07:03:36;4.65;;;2.80;;
52494;SDS011;38405;53.212;5.660;2023-07-08T07:06:01;5.22;;;2.50;;
52494;SDS011;38405;53.212;5.660;2023-07-08T07:08:27;3.35;;;2.67;;
52494;SDS011;38405;53.212;5.660;2023-07-08T07:10:53;5.47;;;2.55;;
52494;SDS011;38405;53.212;5.660;2023-07-08T07:13:18;3.42;;;2.22;;
52494;SDS011;38405;53.212;5.660;2023-07-08T07:15:44;4.00;;;2.60;;
52494;SDS011;38405;53.212;5.660;2023-07-08T07:18:10;3.55;;;2.17;;
52494;SDS011;38405;53.212;5.660;2023-07-08T07:20:36;4.75;;;2.17;;
52494;SDS011;38405;53.212;5.660;2023-07-08T07:23:03;3.13;;;2.30;;
52494;SDS011;38405;53.212;5.660;2023-07-08T07:25:28;3.17;;;2.08;;
52494;SDS011;38405;53.212;5.660;2023-07-08T07:27:54;5.30;;;2.63;;
52494;SDS011;38405;53.212;5.660;2023-07-08T07:30:20;2.80;;;2.30;;
52494;SDS011;38405;53.212;5.660;2023-07-08T07:32:46;3.40;;;2.22;;
52494;SDS011;38405;53.212;5.660;2023-07-08T07:35:12;4.68;;;2.00;;
52494;SDS011;38405;53.212;5.660;2023-07-08T07:37:40;3.72;;;2.42;;
52494;SDS011;38405;53.212;5.660;2023-07-08T07:40:08;2.10;;;1.90;;
52494;SDS011;38405;53.212;5.660;2023-07-08T07:42:37;4.57;;;2.33;;
52494;SDS011;38405;53.212;5.660;2023-07-08T07:45:04;8.02;;;2.00;;
52494;SDS011;38405;53.212;5.660;2023-07-08T07:47:30;3.22;;;2.40;;
52494;SDS011;38405;53.212;5.660;2023-07-08T07:49:56;8.95;;;2.20;;
52494;SDS011;38405;53.212;5.660;2023-07-08T07:52:22;4.85;;;2.20;;
52494;SDS011;38405;53.212;5.660;2023-07-08T07:54:49;2.92;;;2.03;;
52494;SDS011;38405;53.212;5.660;2023-07-08T07:57:19;4.97;;;2.13;;
52494;SDS011;38405;53.212;5.660;2023-07-08T07:59:45;9.52;;;2.10;;
52494;SDS011;38405;53.212;5.660;2023-07-08T08:02:13;2.67;;;2.03;;
52494;SDS011;38405;53.212;5.660;2023-07-08T08:04:39;4.85;;;2.05;;
52494;SDS011;38405;53.212;5.660;2023-07-08T08:07:05;2.83;;;1.70;;
52494;SDS011;38405;53.212;5.660;2023-07-08T08:09:31;5.57;;;2.17;;
52494;SDS011;38405;53.212;5.660;2023-07-08T08:11:56;7.55;;;2.05;;
52494;SDS011;38405;53.212;5.660;2023-07-08T08:14:22;3.60;;;2.20;;
52494;SDS011;38405;53.212;5.660;2023-07-08T08:16:48;2.38;;;2.17;;
52494;SDS011;38405;53.212;5.660;2023-07-08T08:19:13;5.80;;;2.28;;
52494;SDS011;38405;53.212;5.660;2023-07-08T08:21:39;3.22;;;2.13;;
52494;SDS011;38405;53.212;5.660;2023-07-08T08:24:05;6.65;;;2.03;;
52494;SDS011;38405;53.212;5.660;2023-07-08T08:26:30;4.45;;;2.38;;
52494;SDS011;38405;53.212;5.660;2023-07-08T08:28:56;2.70;;;2.03;;
52494;SDS011;38405;53.212;5.660;2023-07-08T08:31:22;4.00;;;2.00;;
52494;SDS011;38405;53.212;5.660;2023-07-08T08:33:49;2.50;;;2.30;;
52494;SDS011;38405;53.212;5.660;2023-07-08T08:36:16;2.65;;;1.90;;
52494;SDS011;38405;53.212;5.660;2023-07-08T08:38:42;2.70;;;2.15;;
52494;SDS011;38405;53.212;5.660;2023-07-08T08:41:15;5.35;;;2.10;;
52494;SDS011;38405;53.212;5.660;2023-07-08T08:43:43;5.68;;;2.00;;
52494;SDS011;38405;53.212;5.660;2023-07-08T08:51:52;3.15;;;2.22;;
52494;SDS011;38405;53.212;5.660;2023-07-08T08:54:19;7.63;;;2.15;;
52494;SDS011;38405;53.212;5.660;2023-07-08T08:59:43;5.30;;;2.10;;
52494;SDS011;38405;53.212;5.660;2023-07-08T09:02:18;2.78;;;2.17;;
52494;SDS011;38405;53.212;5.660;2023-07-08T09:05:07;3.80;;;2.30;;
52494;SDS011;38405;53.212;5.660;2023-07-08T09:07:42;4.40;;;2.00;;
52494;SDS011;38405;53.212;5.660;2023-07-08T09:12:54;4.07;;;2.15;;
52494;SDS011;38405;53.212;5.660;2023-07-08T09:15:21;4.80;;;2.45;;
52494;SDS011;38405;53.212;5.660;2023-07-08T09:17:47;3.03;;;2.13;;
52494;SDS011;38405;53.212;5.660;2023-07-08T09:20:22;6.72;;;2.17;;
52494;SDS011;38405;53.212;5.660;2023-07-08T09:22:58;7.25;;;2.10;;
52494;SDS011;38405;53.212;5.660;2023-07-08T09:28:39;4.28;;;2.10;;
52494;SDS011;38405;53.212;5.660;2023-07-08T09:31:06;4.53;;;2.20;;
52494;SDS011;38405;53.212;5.660;2023-07-08T09:33:37;4.50;;;2.28;;
52494;SDS011;38405;53.212;5.660;2023-07-08T09:36:04;3.03;;;2.00;;
52494;SDS011;38405;53.212;5.660;2023-07-08T09:38:47;5.95;;;2.55;;
52494;SDS011;38405;53.212;5.660;2023-07-08T09:41:16;2.80;;;2.00;;
52494;SDS011;38405;53.212;5.660;2023-07-08T09:44:00;8.55;;;2.60;;
52494;SDS011;38405;53.212;5.660;2023-07-08T09:46:30;9.45;;;2.63;;
52494;SDS011;38405;53.212;5.660;2023-07-08T09:51:43;2.95;;;2.00;;
52494;SDS011;38405;53.212;5.660;2023-07-08T09:54:09;3.95;;;2.58;;
52494;SDS011;38405;53.212;5.660;2023-07-08T09:56:35;6.43;;;2.50;;
52494;SDS011;38405;53.212;5.660;2023-07-08T09:59:09;2.33;;;2.13;;
52494;SDS011;38405;53.212;5.660;2023-07-08T10:01:39;5.25;;;2.40;;
52494;SDS011;38405;53.212;5.660;2023-07-08T10:04:06;4.90;;;2.55;;
52494;SDS011;38405;53.212;5.660;2023-07-08T10:06:33;3.00;;;2.40;;
52494;SDS011;38405;53.212;5.660;2023-07-08T10:09:02;5.45;;;2.25;;
52494;SDS011;38405;53.212;5.660;2023-07-08T10:11:37;5.13;;;2.50;;
52494;SDS011;38405;53.212;5.660;2023-07-08T10:14:20;2.45;;;2.22;;
52494;SDS011;38405;53.212;5.660;2023-07-08T10:16:52;4.53;;;2.63;;
52494;SDS011;38405;53.212;5.660;2023-07-08T10:19:18;3.35;;;2.45;;
52494;SDS011;38405;53.212;5.660;2023-07-08T10:27:12;2.60;;;2.40;;
52494;SDS011;38405;53.212;5.660;2023-07-08T10:35:18;5.95;;;2.80;;
52494;SDS011;38405;53.212;5.660;2023-07-08T10:47:01;2.85;;;2.53;;
52494;SDS011;38405;53.212;5.660;2023-07-08T10:49:37;5.88;;;2.60;;
52494;SDS011;38405;53.212;5.660;2023-07-08T10:57:59;7.10;;;2.45;;
52494;SDS011;38405;53.212;5.660;2023-07-08T11:08:55;4.07;;;2.70;;
52494;SDS011;38405;53.212;5.660;2023-07-08T11:16:40;3.45;;;2.60;;
52494;SDS011;38405;53.212;5.660;2023-07-08T11:19:53;4.15;;;2.70;;
52494;SDS011;38405;53.212;5.660;2023-07-08T11:22:26;5.97;;;3.00;;
52494;SDS011;38405;53.212;5.660;2023-07-08T11:24:54;5.45;;;2.90;;
52494;SDS011;38405;53.212;5.660;2023-07-08T11:27:27;6.72;;;2.90;;
52494;SDS011;38405;53.212;5.660;2023-07-08T11:30:12;4.28;;;3.10;;
52494;SDS011;38405;53.212;5.660;2023-07-08T11:32:45;5.30;;;3.05;;
52494;SDS011;38405;53.212;5.660;2023-07-08T11:35:19;3.10;;;2.50;;
52494;SDS011;38405;53.212;5.660;2023-07-08T11:38:01;6.70;;;2.70;;
52494;SDS011;38405;53.212;5.660;2023-07-08T11:40:28;7.53;;;3.00;;
52494;SDS011;38405;53.212;5.660;2023-07-08T11:43:02;3.53;;;2.90;;
52494;SDS011;38405;53.212;5.660;2023-07-08T11:45:40;3.17;;;2.83;;
52494;SDS011;38405;53.212;5.660;2023-07-08T11:48:16;6.47;;;2.80;;
52494;SDS011;38405;53.212;5.660;2023-07-08T11:50:46;4.13;;;3.03;;
52494;SDS011;38405;53.212;5.660;2023-07-08T11:53:31;3.78;;;3.10;;
52494;SDS011;38405;53.212;5.660;2023-07-08T11:58:30;3.20;;;2.90;;
52494;SDS011;38405;53.212;5.660;2023-07-08T12:04:16;3.55;;;2.90;;
52494;SDS011;38405;53.212;5.660;2023-07-08T12:09:49;3.20;;;2.70;;
52494;SDS011;38405;53.212;5.660;2023-07-08T12:12:36;3.80;;;2.88;;
52494;SDS011;38405;53.212;5.660;2023-07-08T12:15:19;3.95;;;2.70;;
52494;SDS011;38405;53.212;5.660;2023-07-08T12:17:51;5.65;;;2.60;;
52494;SDS011;38405;53.212;5.660;2023-07-08T12:20:27;3.75;;;2.95;;
52494;SDS011;38405;53.212;5.660;2023-07-08T12:22:56;4.55;;;2.78;;
52494;SDS011;38405;53.212;5.660;2023-07-08T12:25:23;4.38;;;2.97;;
52494;SDS011;38405;53.212;5.660;2023-07-08T12:27:52;5.25;;;3.22;;
52494;SDS011;38405;53.212;5.660;2023-07-08T12:30:17;6.22;;;3.25;;
52494;SDS011;38405;53.212;5.660;2023-07-08T12:32:43;4.70;;;3.05;;
52494;SDS011;38405;53.212;5.660;2023-07-08T12:35:23;3.60;;;3.30;;
52494;SDS011;38405;53.212;5.660;2023-07-08T12:37:57;6.13;;;3.28;;
52494;SDS011;38405;53.212;5.660;2023-07-08T12:40:27;4.03;;;2.90;;
52494;SDS011;38405;53.212;5.660;2023-07-08T12:42:54;3.65;;;2.90;;
52494;SDS011;38405;53.212;5.660;2023-07-08T12:45:22;3.25;;;2.95;;
52494;SDS011;38405;53.212;5.660;2023-07-08T12:47:50;3.47;;;2.80;;
52494;SDS011;38405;53.212;5.660;2023-07-08T12:50:16;4.72;;;2.97;;
52494;SDS011;38405;53.212;5.660;2023-07-08T12:52:43;6.65;;;3.10;;
52494;SDS011;38405;53.212;5.660;2023-07-08T12:55:10;5.15;;;2.90;;
52494;SDS011;38405;53.212;5.660;2023-07-08T12:57:37;7.10;;;3.17;;
52494;SDS011;38405;53.212;5.660;2023-07-08T13:00:27;4.78;;;2.83;;
52494;SDS011;38405;53.212;5.660;2023-07-08T13:03:01;6.53;;;3.00;;
52494;SDS011;38405;53.212;5.660;2023-07-08T13:05:32;5.32;;;3.10;;
52494;SDS011;38405;53.212;5.660;2023-07-08T13:07:59;3.95;;;2.95;;
52494;SDS011;38405;53.212;5.660;2023-07-08T13:10:25;3.30;;;3.00;;
52494;SDS011;38405;53.212;5.660;2023-07-08T13:12:56;4.90;;;3.20;;
52494;SDS011;38405;53.212;5.660;2023-07-08T13:15:28;10.63;;;3.55;;
52494;SDS011;38405;53.212;5.660;2023-07-08T13:17:58;6.97;;;3.58;;
52494;SDS011;38405;53.212;5.660;2023-07-08T13:20:24;5.22;;;3.20;;
52494;SDS011;38405;53.212;5.660;2023-07-08T13:22:54;6.25;;;3.35;;
52494;SDS011;38405;53.212;5.660;2023-07-08T13:25:26;10.02;;;3.30;;
52494;SDS011;38405;53.212;5.660;2023-07-08T13:30:48;8.80;;;3.33;;
52494;SDS011;38405;53.212;5.660;2023-07-08T13:33:22;4.93;;;2.92;;
52494;SDS011;38405;53.212;5.660;2023-07-08T13:35:49;5.05;;;3.20;;
52494;SDS011;38405;53.212;5.660;2023-07-08T13:38:17;4.50;;;3.33;;
52494;SDS011;38405;53.212;5.660;2023-07-08T13:40:55;4.05;;;3.30;;
52494;SDS011;38405;53.212;5.660;2023-07-08T13:43:34;6.45;;;3.35;;
52494;SDS011;38405;53.212;5.660;2023-07-08T13:46:02;7.40;;;3.20;;
52494;SDS011;38405;53.212;5.660;2023-07-08T13:48:38;4.05;;;3.28;;
52494;SDS011;38405;53.212;5.660;2023-07-08T13:56:25;3.38;;;3.00;;
52494;SDS011;38405;53.212;5.660;2023-07-08T13:59:00;5.97;;;3.20;;
52494;SDS011;38405;53.212;5.660;2023-07-08T14:01:27;4.03;;;3.55;;
52494;SDS011;38405;53.212;5.660;2023-07-08T14:03:55;6.70;;;3.53;;
52494;SDS011;38405;53.212;5.660;2023-07-08T14:06:25;4.07;;;3.40;;
52494;SDS011;38405;53.212;5.660;2023-07-08T14:08:56;5.20;;;3.70;;
52494;SDS011;38405;53.212;5.660;2023-07-08T14:11:24;6.13;;;3.90;;
52494;SDS011;38405;53.212;5.660;2023-07-08T14:13:50;8.27;;;3.97;;
52494;SDS011;38405;53.212;5.660;2023-07-08T14:16:27;6.43;;;3.38;;
52494;SDS011;38405;53.212;5.660;2023-07-08T14:18:58;8.73;;;3.95;;
52494;SDS011;38405;53.212;5.660;2023-07-08T14:21:29;6.90;;;4.25;;
52494;SDS011;38405;53.212;5.660;2023-07-08T14:23:55;6.38;;;3.95;;
52494;SDS011;38405;53.212;5.660;2023-07-08T14:26:21;7.03;;;3.28;;
52494;SDS011;38405;53.212;5.660;2023-07-08T14:28:47;4.28;;;3.20;;
52494;SDS011;38405;53.212;5.660;2023-07-08T14:31:14;8.13;;;3.45;;
52494;SDS011;38405;53.212;5.660;2023-07-08T14:33:44;5.90;;;3.85;;
52494;SDS011;38405;53.212;5.660;2023-07-08T14:36:10;13.07;;;3.78;;
52494;SDS011;38405;53.212;5.660;2023-07-08T14:38:36;7.32;;;3.55;;
52494;SDS011;38405;53.212;5.660;2023-07-08T14:41:02;6.32;;;3.78;;
52494;SDS011;38405;53.212;5.660;2023-07-08T14:43:29;4.43;;;3.60;;
52494;SDS011;38405;53.212;5.660;2023-07-08T14:45:57;3.95;;;3.55;;
52494;SDS011;38405;53.212;5.660;2023-07-08T14:48:27;4.97;;;3.63;;
52494;SDS011;38405;53.212;5.660;2023-07-08T14:50:54;7.22;;;4.30;;
52494;SDS011;38405;53.212;5.660;2023-07-08T14:53:20;5.07;;;3.85;;
52494;SDS011;38405;53.212;5.660;2023-07-08T14:55:47;6.05;;;3.92;;
52494;SDS011;38405;53.212;5.660;2023-07-08T14:58:25;7.15;;;3.92;;
52494;SDS011;38405;53.212;5.660;2023-07-08T15:00:54;9.98;;;4.35;;
52494;SDS011;38405;53.212;5.660;2023-07-08T15:03:22;5.72;;;3.83;;
52494;SDS011;38405;53.212;5.660;2023-07-08T15:05:48;6.82;;;4.10;;
52494;SDS011;38405;53.212;5.660;2023-07-08T15:08:14;10.07;;;4.68;;
52494;SDS011;38405;53.212;5.660;2023-07-08T15:10:40;7.85;;;4.38;;
52494;SDS011;38405;53.212;5.660;2023-07-08T15:13:15;6.35;;;3.92;;
52494;SDS011;38405;53.212;5.660;2023-07-08T15:15:44;5.93;;;4.18;;
52494;SDS011;38405;53.212;5.660;2023-07-08T15:18:13;4.20;;;3.65;;
52494;SDS011;38405;53.212;5.660;2023-07-08T15:20:41;4.97;;;4.15;;
52494;SDS011;38405;53.212;5.660;2023-07-08T15:23:07;5.97;;;4.22;;
52494;SDS011;38405;53.212;5.660;2023-07-08T15:25:34;9.85;;;4.65;;
52494;SDS011;38405;53.212;5.660;2023-07-08T15:28:02;9.23;;;4.95;;
52494;SDS011;38405;53.212;5.660;2023-07-08T15:30:29;8.10;;;4.80;;
52494;SDS011;38405;53.212;5.660;2023-07-08T15:32:55;6.25;;;4.43;;
52494;SDS011;38405;53.212;5.660;2023-07-08T15:35:26;5.05;;;4.38;;
52494;SDS011;38405;53.212;5.660;2023-07-08T15:37:57;6.07;;;4.72;;
52494;SDS011;38405;53.212;5.660;2023-07-08T15:40:24;9.20;;;4.30;;
52494;SDS011;38405;53.212;5.660;2023-07-08T15:42:53;5.97;;;4.20;;
52494;SDS011;38405;53.212;5.660;2023-07-08T15:45:24;6.20;;;4.57;;
52494;SDS011;38405;53.212;5.660;2023-07-08T15:47:53;5.53;;;4.35;;
52494;SDS011;38405;53.212;5.660;2023-07-08T15:50:20;6.32;;;4.20;;
52494;SDS011;38405;53.212;5.660;2023-07-08T15:52:47;9.20;;;4.55;;
52494;SDS011;38405;53.212;5.660;2023-07-08T15:55:14;6.53;;;4.65;;
52494;SDS011;38405;53.212;5.660;2023-07-08T15:57:46;8.00;;;5.05;;
52494;SDS011;38405;53.212;5.660;2023-07-08T16:00:17;4.80;;;4.30;;
52494;SDS011;38405;53.212;5.660;2023-07-08T16:02:46;7.18;;;4.65;;
52494;SDS011;38405;53.212;5.660;2023-07-08T16:05:18;6.50;;;4.57;;
52494;SDS011;38405;53.212;5.660;2023-07-08T16:07:45;7.03;;;4.93;;
52494;SDS011;38405;53.212;5.660;2023-07-08T16:10:12;6.82;;;5.13;;
52494;SDS011;38405;53.212;5.660;2023-07-08T16:12:38;7.25;;;5.20;;
52494;SDS011;38405;53.212;5.660;2023-07-08T16:15:05;6.85;;;5.07;;
52494;SDS011;38405;53.212;5.660;2023-07-08T16:17:37;7.82;;;5.32;;
52494;SDS011;38405;53.212;5.660;2023-07-08T16:20:07;6.85;;;5.20;;
52494;SDS011;38405;53.212;5.660;2023-07-08T16:22:53;14.30;;;5.50;;
52494;SDS011;38405;53.212;5.660;2023-07-08T16:25:41;9.40;;;5.00;;
52494;SDS011;38405;53.212;5.660;2023-07-08T16:28:08;6.18;;;4.95;;